createdAt,value
2018-03-28T00:01:23.572Z,7.83
2018-03-28T00:03:51.196Z,7.43
2018-03-28T00:06:18.796Z,6.10
2018-03-28T00:08:46.428Z,9.20
2018-03-28T00:11:14.032Z,6.50
2018-03-28T00:13:41.656Z,6.63
2018-03-28T00:16:09.345Z,8.20
2018-03-28T00:18:37.108Z,10.20
2018-03-28T00:21:04.708Z,8.53
2018-03-28T00:23:32.313Z,6.90
2018-03-28T00:25:59.940Z,7.13
2018-03-28T00:28:27.546Z,7.50
2018-03-28T00:30:55.172Z,6.77
2018-03-28T00:33:22.780Z,11.70
2018-03-28T00:35:50.440Z,6.57
2018-03-28T00:38:18.041Z,7.83
2018-03-28T00:40:45.800Z,9.53
2018-03-28T00:43:13.434Z,7.37
2018-03-28T00:45:41.064Z,13.03
2018-03-28T00:48:08.756Z,7.90
2018-03-28T00:50:36.384Z,9.80
2018-03-28T00:53:04.081Z,7.53
2018-03-28T00:55:31.749Z,6.50
2018-03-28T00:57:59.372Z,7.77
2018-03-28T01:00:26.972Z,8.57
2018-03-28T01:02:55.347Z,5.83
2018-03-28T01:05:23.008Z,7.10
2018-03-28T01:07:50.635Z,10.83
2018-03-28T01:10:18.232Z,5.83
2018-03-28T01:12:45.891Z,7.03
2018-03-28T01:15:13.562Z,6.33
2018-03-28T01:17:41.220Z,8.80
2018-03-28T01:20:08.890Z,5.97
2018-03-28T01:22:36.544Z,9.33
2018-03-28T01:25:04.145Z,9.60
2018-03-28T01:27:31.767Z,11.70
2018-03-28T01:29:59.433Z,6.87
2018-03-28T01:32:27.048Z,7.40
2018-03-28T01:34:54.679Z,9.20
2018-03-28T01:37:22.284Z,11.50
2018-03-28T01:39:49.984Z,6.47
2018-03-28T01:42:17.585Z,6.40
2018-03-28T01:44:45.204Z,7.13
2018-03-28T01:47:12.884Z,11.87
2018-03-28T01:49:40.507Z,8.80
2018-03-28T01:52:08.115Z,7.17
2018-03-28T01:54:35.742Z,7.40
2018-03-28T01:57:03.413Z,6.50
2018-03-28T01:59:31.041Z,7.17
2018-03-28T02:01:58.657Z,12.80
2018-03-28T02:04:26.291Z,8.33
2018-03-28T02:06:53.915Z,8.77
2018-03-28T02:09:21.548Z,8.30
2018-03-28T02:11:49.192Z,7.07
2018-03-28T02:14:16.820Z,6.70
2018-03-28T02:16:44.508Z,7.10
2018-03-28T02:19:12.144Z,6.93
2018-03-28T02:21:39.841Z,8.07
2018-03-28T02:24:07.465Z,6.10
2018-03-28T02:26:35.073Z,7.20
2018-03-28T02:29:02.729Z,6.90
2018-03-28T02:31:30.345Z,10.00
2018-03-28T02:33:57.980Z,9.30
2018-03-28T02:36:25.585Z,7.57
2018-03-28T02:38:53.222Z,11.73
2018-03-28T02:41:20.829Z,7.00
2018-03-28T02:43:48.490Z,8.43
2018-03-28T02:46:16.099Z,13.10
2018-03-28T02:48:43.715Z,8.90
2018-03-28T02:51:11.365Z,10.60
2018-03-28T02:53:38.967Z,8.10
2018-03-28T02:56:06.710Z,11.07
2018-03-28T02:58:34.321Z,9.90
2018-03-28T03:01:01.958Z,9.77
2018-03-28T03:03:29.569Z,9.43
2018-03-28T03:05:57.207Z,10.83
2018-03-28T03:08:24.922Z,11.77
2018-03-28T03:10:52.548Z,20.97
2018-03-28T03:13:20.153Z,7.10
2018-03-28T03:15:47.809Z,9.20
2018-03-28T03:18:15.465Z,11.77
2018-03-28T03:20:43.076Z,13.07
2018-03-28T03:23:10.704Z,7.97
2018-03-28T03:25:38.313Z,14.33
2018-03-28T03:28:05.944Z,8.17
2018-03-28T03:30:33.557Z,9.40
2018-03-28T03:33:01.181Z,9.10
2018-03-28T03:35:28.797Z,11.37
2018-03-28T03:37:56.461Z,9.30
2018-03-28T03:40:24.069Z,11.80
2018-03-28T03:42:51.787Z,11.47
2018-03-28T03:45:19.395Z,12.23
2018-03-28T03:47:47.029Z,11.73
2018-03-28T03:50:14.637Z,15.73
2018-03-28T03:52:42.288Z,13.50
2018-03-28T03:55:09.925Z,13.70
2018-03-28T03:57:37.541Z,12.13
2018-03-28T04:00:05.181Z,14.53
2018-03-28T04:02:32.792Z,12.77
2018-03-28T04:05:00.444Z,14.50
2018-03-28T04:07:28.058Z,14.40
2018-03-28T04:09:55.689Z,12.83
2018-03-28T04:12:23.388Z,15.65
2018-03-28T04:14:51.037Z,11.13
2018-03-28T04:17:18.651Z,16.43
2018-03-28T04:19:46.266Z,15.00
2018-03-28T04:22:13.905Z,12.17
2018-03-28T04:24:41.517Z,14.90
2018-03-28T04:27:09.209Z,16.23
2018-03-28T04:29:36.877Z,13.43
2018-03-28T04:32:04.518Z,14.30
2018-03-28T04:34:32.125Z,14.97
2018-03-28T04:36:59.852Z,16.40
2018-03-28T04:39:27.533Z,11.33
2018-03-28T04:41:55.165Z,19.43
2018-03-28T04:44:22.777Z,12.40
2018-03-28T04:46:50.392Z,22.03
2018-03-28T04:49:18.068Z,13.47
2018-03-28T04:51:45.734Z,14.70
2018-03-28T04:54:13.409Z,16.27
2018-03-28T04:56:41.061Z,14.77
2018-03-28T04:59:08.721Z,17.67
2018-03-28T05:01:36.385Z,18.93
2018-03-28T05:04:04.032Z,18.57
2018-03-28T05:06:31.656Z,19.77
2018-03-28T05:08:59.293Z,18.33
2018-03-28T05:11:26.932Z,23.80
2018-03-28T05:13:54.580Z,18.67
2018-03-28T05:16:22.203Z,17.73
2018-03-28T05:18:49.816Z,46.53
2018-03-28T05:21:17.481Z,39.17
2018-03-28T05:23:45.096Z,21.20
2018-03-28T05:26:12.729Z,26.53
2018-03-28T05:28:40.345Z,19.70
2018-03-28T05:31:07.984Z,18.87
2018-03-28T05:33:35.601Z,17.33
2018-03-28T05:36:03.253Z,43.23
2018-03-28T05:38:30.869Z,19.07
2018-03-28T05:40:58.509Z,86.83
2018-03-28T05:43:26.145Z,23.77
2018-03-28T05:45:53.801Z,27.20
2018-03-28T05:48:21.464Z,26.53
2018-03-28T05:50:49.096Z,20.03
2018-03-28T05:53:16.781Z,23.30
2018-03-28T05:55:44.452Z,22.97
2018-03-28T05:58:12.060Z,22.57
2018-03-28T06:00:39.693Z,24.57
2018-03-28T06:03:07.329Z,22.50
2018-03-28T06:05:34.969Z,22.97
2018-03-28T06:08:02.596Z,24.60
2018-03-28T06:10:30.328Z,24.27
2018-03-28T06:12:58.025Z,23.43
2018-03-28T06:15:25.657Z,24.20
2018-03-28T06:17:53.316Z,21.20
2018-03-28T06:20:21.072Z,23.00
2018-03-28T06:22:48.685Z,25.17
2018-03-28T06:25:16.320Z,37.43
2018-03-28T06:27:43.932Z,26.87
2018-03-28T06:30:11.565Z,32.83
2018-03-28T06:32:39.181Z,31.93
2018-03-28T06:35:06.816Z,27.10
2018-03-28T06:37:34.506Z,18.97
2018-03-28T06:40:02.150Z,29.53
2018-03-28T06:42:31.263Z,29.90
2018-03-28T06:44:58.905Z,35.23
2018-03-28T06:47:26.529Z,31.33
2018-03-28T06:49:54.141Z,35.07
2018-03-28T06:52:21.780Z,35.60
2018-03-28T06:54:49.484Z,37.57
2018-03-28T06:57:17.125Z,41.40
2018-03-28T06:59:44.750Z,40.87
2018-03-28T07:02:12.405Z,44.60
2018-03-28T07:04:40.016Z,39.20
2018-03-28T07:07:07.648Z,37.07
2018-03-28T07:09:35.261Z,39.00
2018-03-28T07:12:02.916Z,42.60
2018-03-28T07:14:30.533Z,37.17
2018-03-28T07:16:58.172Z,36.93
2018-03-28T07:19:25.788Z,38.00
2018-03-28T07:21:53.469Z,43.77
2018-03-28T07:24:21.076Z,43.07
2018-03-28T07:26:48.793Z,44.73
2018-03-28T07:29:16.457Z,42.00
2018-03-28T07:31:44.116Z,43.67
2018-03-28T07:34:11.741Z,35.63
2018-03-28T07:36:39.539Z,54.10
2018-03-28T07:39:07.152Z,42.17
2018-03-28T07:41:34.794Z,52.83
2018-03-28T07:44:02.488Z,59.10
2018-03-28T07:46:30.293Z,41.27
2018-03-28T07:48:57.904Z,43.07
2018-03-28T07:51:25.540Z,48.93
2018-03-28T07:53:53.153Z,41.63
2018-03-28T07:56:20.849Z,52.90
2018-03-28T07:58:48.465Z,47.53
2018-03-28T08:01:16.110Z,53.07
2018-03-28T08:03:43.837Z,46.70
2018-03-28T08:06:11.468Z,48.30
2018-03-28T08:08:39.077Z,55.90
2018-03-28T08:11:06.710Z,57.03
2018-03-28T08:13:34.325Z,63.60
2018-03-28T08:16:01.974Z,69.23
2018-03-28T08:18:29.593Z,61.47
2018-03-28T08:20:57.226Z,70.10
2018-03-28T08:23:24.932Z,65.10
2018-03-28T08:25:52.588Z,68.63
2018-03-28T08:28:20.260Z,70.83
2018-03-28T08:30:47.876Z,75.33
2018-03-28T08:33:15.521Z,75.63
2018-03-28T08:35:43.247Z,65.97
2018-03-28T08:38:10.898Z,72.40
2018-03-28T08:40:38.573Z,74.27
2018-03-28T08:43:06.236Z,81.03
2018-03-28T08:45:33.994Z,81.67
2018-03-28T08:48:01.672Z,80.00
2018-03-28T08:50:29.285Z,84.00
2018-03-28T08:52:57.065Z,98.47
2018-03-28T08:55:24.686Z,87.23
2018-03-28T08:57:52.329Z,66.10
2018-03-28T09:00:19.938Z,85.83
2018-03-28T09:02:47.572Z,74.80
2018-03-28T09:05:15.192Z,98.87
2018-03-28T09:07:42.865Z,71.93
2018-03-28T09:10:10.480Z,101.77
2018-03-28T09:12:38.129Z,78.00
2018-03-28T09:15:05.749Z,98.93
2018-03-28T09:17:33.389Z,102.17
2018-03-28T09:20:01.072Z,90.40
2018-03-28T09:22:28.712Z,70.50
2018-03-28T09:24:56.334Z,101.63
2018-03-28T09:27:23.972Z,83.93
2018-03-28T09:29:51.584Z,94.90
2018-03-28T09:32:19.216Z,97.87
2018-03-28T09:34:46.829Z,114.57
2018-03-28T09:37:14.469Z,112.03
2018-03-28T09:39:42.176Z,95.10
2018-03-28T09:42:09.816Z,86.17
2018-03-28T09:44:37.509Z,105.13
2018-03-28T09:47:05.269Z,86.87
2018-03-28T09:49:32.888Z,91.47
2018-03-28T09:52:00.541Z,103.23
2018-03-28T09:54:28.248Z,92.87
2018-03-28T09:56:55.885Z,84.30
2018-03-28T09:59:23.500Z,88.90
2018-03-28T10:01:56.852Z,75.80
2018-03-28T10:04:27.279Z,81.33
2018-03-28T10:06:54.932Z,107.13
2018-03-28T10:09:22.624Z,62.93
2018-03-28T10:11:50.288Z,96.13
2018-03-28T10:14:17.927Z,90.83
2018-03-28T10:16:45.889Z,93.27
2018-03-28T10:19:13.528Z,83.60
2018-03-28T10:21:41.246Z,72.87
2018-03-28T10:24:08.880Z,82.10
2018-03-28T10:26:36.492Z,63.13
2018-03-28T10:29:04.237Z,78.93
2018-03-28T10:31:31.882Z,87.90
2018-03-28T10:33:59.560Z,88.73
2018-03-28T10:36:27.177Z,81.80
2018-03-28T10:38:54.816Z,77.23
2018-03-28T10:41:22.444Z,82.87
2018-03-28T10:43:50.097Z,82.90
2018-03-28T10:46:18.009Z,54.67
2018-03-28T10:48:45.649Z,87.77
2018-03-28T10:51:13.305Z,83.87
2018-03-28T10:53:40.976Z,79.17
2018-03-28T10:56:08.623Z,83.57
2018-03-28T10:58:36.383Z,84.57
2018-03-28T11:01:04.008Z,87.00
2018-03-28T11:03:31.716Z,67.37
2018-03-28T11:05:59.333Z,74.80
2018-03-28T11:08:26.974Z,61.67
2018-03-28T11:10:54.590Z,62.10
2018-03-28T11:13:22.232Z,75.37
2018-03-28T11:15:49.853Z,69.67
2018-03-28T11:18:17.501Z,81.00
2018-03-28T11:20:45.114Z,83.03
2018-03-28T11:23:12.748Z,80.63
2018-03-28T11:25:40.361Z,66.37
2018-03-28T11:28:08.001Z,62.63
2018-03-28T11:30:35.700Z,62.77
2018-03-28T11:33:03.340Z,62.17
2018-03-28T11:35:30.957Z,65.33
2018-03-28T11:37:58.604Z,62.47
2018-03-28T11:40:26.249Z,63.80
2018-03-28T11:42:53.886Z,61.53
2018-03-28T11:45:21.567Z,60.63
2018-03-28T11:47:49.227Z,58.50
2018-03-28T11:50:16.845Z,57.87
2018-03-28T11:52:44.564Z,51.87
2018-03-28T11:55:12.203Z,46.00
2018-03-28T11:57:39.821Z,43.93
2018-03-28T12:00:07.456Z,51.93
2018-03-28T12:02:35.073Z,50.43
2018-03-28T12:05:02.724Z,46.03
2018-03-28T12:07:30.437Z,53.27
2018-03-28T12:09:58.072Z,45.07
2018-03-28T12:12:25.689Z,52.80
2018-03-28T12:14:53.417Z,56.97
2018-03-28T12:17:21.084Z,46.90
2018-03-28T12:19:48.728Z,37.60
2018-03-28T12:22:16.340Z,48.90
2018-03-28T12:24:43.977Z,55.37
2018-03-28T12:27:11.637Z,52.47
2018-03-28T12:29:39.301Z,57.47
2018-03-28T12:32:06.960Z,53.40
2018-03-28T12:34:34.630Z,50.10
2018-03-28T12:37:02.298Z,27.23
2018-03-28T12:39:29.920Z,43.70
2018-03-28T12:41:57.545Z,46.77
2018-03-28T12:44:25.185Z,43.33
2018-03-28T12:46:52.832Z,39.77
2018-03-28T12:49:20.485Z,38.67
2018-03-28T12:51:48.196Z,36.33
2018-03-28T12:54:15.892Z,44.60
2018-03-28T12:56:43.509Z,24.50
2018-03-28T12:59:11.186Z,50.60
2018-03-28T13:01:38.803Z,40.30
2018-03-28T13:04:06.444Z,47.40
2018-03-28T13:06:34.069Z,47.13
2018-03-28T13:09:01.800Z,42.30
2018-03-28T13:11:29.465Z,45.53
2018-03-28T13:13:57.229Z,43.40
2018-03-28T13:16:24.893Z,41.40
2018-03-28T13:18:52.533Z,54.13
2018-03-28T13:21:20.221Z,40.60
2018-03-28T13:23:47.880Z,40.07
2018-03-28T13:26:15.526Z,29.37
2018-03-28T13:28:43.206Z,41.13
2018-03-28T13:31:10.844Z,46.23
2018-03-28T13:33:38.461Z,36.73
2018-03-28T13:38:39.025Z,33.93
2018-03-28T13:41:06.742Z,45.83
2018-03-28T13:43:34.357Z,32.97
2018-03-28T13:46:01.969Z,27.17
2018-03-28T13:48:29.612Z,53.80
2018-03-28T13:50:57.226Z,42.57
2018-03-28T13:53:24.952Z,39.43
2018-03-28T13:55:52.616Z,32.20
2018-03-28T13:58:20.256Z,36.60
2018-03-28T14:00:47.870Z,38.70
2018-03-28T14:03:15.504Z,45.47
2018-03-28T14:05:43.209Z,36.33
2018-03-28T14:08:10.828Z,44.53
2018-03-28T14:10:38.451Z,45.97
2018-03-28T14:13:06.084Z,39.37
2018-03-28T14:15:33.693Z,36.87
2018-03-28T14:18:01.378Z,38.50
2018-03-28T14:20:29.041Z,40.80
2018-03-28T14:22:56.648Z,37.03
2018-03-28T14:25:24.285Z,46.73
2018-03-28T14:27:51.896Z,43.80
2018-03-28T14:30:19.593Z,26.50
2018-03-28T14:32:47.253Z,38.57
2018-03-28T14:35:14.890Z,47.00
2018-03-28T14:37:42.532Z,43.77
2018-03-28T14:40:10.160Z,46.60
2018-03-28T14:42:37.776Z,40.83
2018-03-28T14:45:05.413Z,46.93
2018-03-28T14:47:33.033Z,24.37
2018-03-28T14:50:00.653Z,31.73
2018-03-28T14:52:28.349Z,48.90
2018-03-28T14:54:56.013Z,39.13
2018-03-28T14:57:23.640Z,37.57
2018-03-28T14:59:51.256Z,33.17
2018-03-28T15:02:18.897Z,36.43
2018-03-28T15:04:46.511Z,33.57
2018-03-28T15:07:14.152Z,30.90
2018-03-28T15:09:41.761Z,34.93
2018-03-28T15:12:09.396Z,30.07
2018-03-28T15:14:37.088Z,45.88
2018-03-28T15:17:04.721Z,36.77
2018-03-28T15:19:32.432Z,37.10
2018-03-28T15:22:00.068Z,34.10
2018-03-28T15:24:27.685Z,36.60
2018-03-28T15:26:55.296Z,29.73
2018-03-28T15:29:22.933Z,33.30
2018-03-28T15:31:50.545Z,29.57
2018-03-28T15:34:18.181Z,33.10
2018-03-28T15:36:45.796Z,26.47
2018-03-28T15:39:13.623Z,30.67
2018-03-28T15:41:41.233Z,34.83
2018-03-28T15:44:08.868Z,31.30
2018-03-28T15:46:36.523Z,28.50
2018-03-28T15:49:04.285Z,26.70
2018-03-28T15:51:31.905Z,25.87
2018-03-28T15:53:59.524Z,20.50
2018-03-28T15:56:27.273Z,28.10
2018-03-28T15:58:54.933Z,29.33
2018-03-28T16:01:22.690Z,28.23
2018-03-28T16:03:50.356Z,23.90
2018-03-28T16:06:18.025Z,31.10
2018-03-28T16:08:45.653Z,28.33
2018-03-28T16:11:13.297Z,30.20
2018-03-28T16:13:40.912Z,27.83
2018-03-28T16:16:08.543Z,31.97
2018-03-28T16:18:36.233Z,27.00
2018-03-28T16:21:03.868Z,33.43
2018-03-28T16:23:31.481Z,37.33
2018-03-28T16:25:59.121Z,28.70
2018-03-28T16:28:26.741Z,19.77
2018-03-28T16:30:54.376Z,29.20
2018-03-28T16:33:21.989Z,33.33
2018-03-28T16:35:49.601Z,27.63
2018-03-28T16:38:17.336Z,39.70
2018-03-28T16:40:44.993Z,33.97
2018-03-28T16:43:12.633Z,39.93
2018-03-28T16:45:40.320Z,44.80
2018-03-28T16:48:07.977Z,34.20
2018-03-28T16:50:35.590Z,41.03
2018-03-28T16:53:03.233Z,36.90
2018-03-28T16:55:30.845Z,32.70
2018-03-28T16:57:58.533Z,36.00
2018-03-28T17:00:26.197Z,36.50
2018-03-28T17:02:53.865Z,41.77
2018-03-28T17:05:21.477Z,33.63
2018-03-28T17:07:49.300Z,37.83
2018-03-28T17:10:16.850Z,38.90
2018-03-28T17:12:44.465Z,34.73
2018-03-28T17:15:12.173Z,41.83
2018-03-28T17:17:39.834Z,34.70
2018-03-28T17:20:07.468Z,44.50
2018-03-28T17:22:35.081Z,41.70
2018-03-28T17:25:02.820Z,37.53
2018-03-28T17:27:30.457Z,30.70
2018-03-28T17:29:58.112Z,38.87
2018-03-28T17:32:25.737Z,33.30
2018-03-28T17:34:53.378Z,38.17
2018-03-28T17:37:21.037Z,32.93
2018-03-28T17:39:48.665Z,32.60
2018-03-28T17:42:16.300Z,35.37
2018-03-28T17:44:43.922Z,38.00
2018-03-28T17:47:11.581Z,38.70
2018-03-28T17:49:39.244Z,48.47
2018-03-28T17:52:06.877Z,28.90
2018-03-28T17:54:34.496Z,35.23
2018-03-28T17:57:02.235Z,33.20
2018-03-28T17:59:29.898Z,40.13
2018-03-28T18:01:57.536Z,43.40
2018-03-28T18:04:25.228Z,40.83
2018-03-28T18:06:52.985Z,42.00
2018-03-28T18:09:20.609Z,40.77
2018-03-28T18:11:48.221Z,49.90
2018-03-28T18:14:15.865Z,45.30
2018-03-28T18:16:43.481Z,44.53
2018-03-28T18:19:11.197Z,37.37
2018-03-28T18:21:38.864Z,46.13
2018-03-28T18:24:06.505Z,48.50
2018-03-28T18:26:34.118Z,50.53
2018-03-28T18:29:01.756Z,48.57
2018-03-28T18:31:29.412Z,23.23
2018-03-28T18:33:57.049Z,45.13
2018-03-28T18:36:24.736Z,35.43
2018-03-28T18:38:52.376Z,46.40
2018-03-28T18:41:19.989Z,38.97
2018-03-28T18:43:47.621Z,22.03
2018-03-28T18:46:15.248Z,44.50
2018-03-28T18:48:42.868Z,36.57
2018-03-28T18:51:10.508Z,42.73
2018-03-28T18:53:38.120Z,36.17
2018-03-28T18:56:05.832Z,35.07
2018-03-28T18:58:33.449Z,41.97
2018-03-28T19:01:01.085Z,37.07
2018-03-28T19:03:28.811Z,40.20
2018-03-28T19:05:56.485Z,30.37
2018-03-28T19:08:24.097Z,40.30
2018-03-28T19:10:51.804Z,38.00
2018-03-28T19:13:19.417Z,52.33
2018-03-28T19:15:47.133Z,34.33
2018-03-28T19:18:14.797Z,40.40
2018-03-28T19:20:42.446Z,35.70
2018-03-28T19:23:10.058Z,43.37
2018-03-28T19:25:37.673Z,43.97
2018-03-28T19:28:05.307Z,49.03
2018-03-28T19:30:33.004Z,45.33
2018-03-28T19:33:00.669Z,42.23
2018-03-28T19:35:28.337Z,45.17
2018-03-28T19:37:55.981Z,43.80
2018-03-28T19:40:23.662Z,41.20
2018-03-28T19:42:51.320Z,41.27
2018-03-28T19:45:18.988Z,40.43
2018-03-28T19:47:46.636Z,48.10
2018-03-28T19:50:14.249Z,51.23
2018-03-28T19:52:41.889Z,51.20
2018-03-28T19:55:09.500Z,38.43
2018-03-28T19:57:37.200Z,52.43
2018-03-28T20:00:04.809Z,56.27
2018-03-28T20:02:32.425Z,59.17
2018-03-28T20:05:00.060Z,58.87
2018-03-28T20:07:27.676Z,55.30
2018-03-28T20:09:55.309Z,58.40
2018-03-28T20:12:22.944Z,45.87
2018-03-28T20:14:50.581Z,67.13
2018-03-28T20:17:18.192Z,73.47
2018-03-28T20:19:45.852Z,65.70
2018-03-28T20:22:13.517Z,54.73
2018-03-28T20:24:41.180Z,59.00
2018-03-28T20:27:08.788Z,80.40
2018-03-28T20:29:36.424Z,73.37
2018-03-28T20:32:04.069Z,61.80
2018-03-28T20:34:31.829Z,67.23
2018-03-28T20:36:59.445Z,68.83
2018-03-28T20:39:27.153Z,59.40
2018-03-28T20:41:54.774Z,68.50
2018-03-28T20:44:22.416Z,81.20
2018-03-28T20:46:50.053Z,78.00
2018-03-28T20:49:17.713Z,91.70
2018-03-28T20:51:45.353Z,89.97
2018-03-28T20:54:13.038Z,101.40
2018-03-28T20:56:40.682Z,89.20
2018-03-28T20:59:08.357Z,95.50
2018-03-28T21:01:36.018Z,91.33
2018-03-28T21:04:03.633Z,87.27
2018-03-28T21:06:31.341Z,89.87
2018-03-28T21:08:59.012Z,96.47
2018-03-28T21:11:26.644Z,92.47
2018-03-28T21:13:54.260Z,108.43
2018-03-28T21:16:21.905Z,100.13
2018-03-28T21:18:49.520Z,100.03
2018-03-28T21:21:17.216Z,95.60
2018-03-28T21:23:44.880Z,102.60
2018-03-28T21:26:12.492Z,74.67
2018-03-28T21:28:40.128Z,99.87
2018-03-28T21:31:07.745Z,92.93
2018-03-28T21:33:35.389Z,112.20
2018-03-28T21:36:03.001Z,99.27
2018-03-28T21:38:30.676Z,102.30
2018-03-28T21:40:58.293Z,99.80
2018-03-28T21:43:25.976Z,94.23
2018-03-28T21:45:53.594Z,119.60
2018-03-28T21:48:21.237Z,100.00
2018-03-28T21:50:48.868Z,113.10
2018-03-28T21:53:16.526Z,104.07
2018-03-28T21:55:44.148Z,100.50
2018-03-28T21:58:11.776Z,112.73
2018-03-28T22:00:39.516Z,112.07
2018-03-28T22:03:07.181Z,97.83
2018-03-28T22:05:34.840Z,90.70
2018-03-28T22:08:02.510Z,101.93
2018-03-28T22:10:30.144Z,92.30
2018-03-28T22:12:57.764Z,82.77
2018-03-28T22:15:25.412Z,95.53
2018-03-28T22:17:53.025Z,101.37
2018-03-28T22:20:20.675Z,104.33
2018-03-28T22:22:48.285Z,97.83
2018-03-28T22:25:16.038Z,94.80
2018-03-28T22:27:43.705Z,77.53
2018-03-28T22:30:11.312Z,99.67
2018-03-28T22:32:39.029Z,99.27
2018-03-28T22:35:06.645Z,111.10
2018-03-28T22:37:34.281Z,88.43
2018-03-28T22:40:01.892Z,93.87
2018-03-28T22:42:29.576Z,116.50
2018-03-28T22:44:57.205Z,96.03
2018-03-28T22:47:24.841Z,98.27
2018-03-28T22:49:52.453Z,93.67
2018-03-28T22:52:20.115Z,88.17
2018-03-28T22:54:47.781Z,89.10
2018-03-28T22:57:15.553Z,108.57
2018-03-28T22:59:43.169Z,106.77
2018-03-28T23:02:10.782Z,103.17
2018-03-28T23:04:38.416Z,100.70
2018-03-28T23:07:06.020Z,93.97
2018-03-28T23:09:33.653Z,102.10
2018-03-28T23:12:01.320Z,110.97
2018-03-28T23:14:28.952Z,90.77
2018-03-28T23:16:56.653Z,89.27
2018-03-28T23:19:24.313Z,96.30
2018-03-28T23:21:51.981Z,96.50
2018-03-28T23:24:19.612Z,78.23
2018-03-28T23:26:47.229Z,77.10
2018-03-28T23:29:14.962Z,83.20
2018-03-28T23:31:42.573Z,79.47
2018-03-28T23:34:10.184Z,89.10
2018-03-28T23:36:37.821Z,87.80
2018-03-28T23:39:05.433Z,88.23
2018-03-28T23:41:33.169Z,99.30
2018-03-28T23:44:00.833Z,74.60
2018-03-28T23:46:28.469Z,97.67
2018-03-28T23:48:56.082Z,84.93
2018-03-28T23:51:23.718Z,88.87
2018-03-28T23:53:51.325Z,98.17
2018-03-28T23:56:18.957Z,98.93
2018-03-28T23:58:46.564Z,103.37
